Latest Weather Observations for Douglas River

IDD60801

Issued at 10:01 pm CST Tuesday 17 January 2017 (issued every 30 minutes, with the page automatically refreshed every 10 minutes)

About weather observations | Map of weather stations | Latest weather observations for NT | Other Formats
Station Details ID: 014901 Name: DOUGLAS RIVER Lat: -13.83 Lon: 131.19 Height: 42.8 m
Data from the previous 72 hours. | See also: Recent months at Douglas River
Date/Time
CST
Temp
°C
App
Temp
°C
Dew
Point
°C
Rel
Hum
%
Delta-T
°C
Wind Press
QNH
hPa
Press
MSL
hPa
Rain since
9am
mm
Dir  Spd
km/h
Gust
km/h
Spd
kts
Gust
kts
17/10:00pm 26.2 32.6 24.9 92 0.9 CALM 0 0 0 0 1009.5 1009.2 0.2
17/09:30pm 26.2 31.4 24.8 92 1.0 NNE 6 7 3 4 1009.4 1009.1 0.2
17/09:00pm 26.6 32.9 24.7 89 1.3 CALM 0 0 0 0 1009.4 1009.1 0.2
17/08:30pm 26.6 32.1 24.7 89 1.3 NNE 4 7 2 4 1009.2 1008.9 0.2
17/08:00pm 26.8 32.0 24.8 89 1.4 NE 6 9 3 5 1008.8 1008.5 0.2
17/07:30pm 27.5 32.5 24.5 84 2.1 ENE 6 9 3 5 1008.1 1007.8 0.2
17/07:00pm 29.0 35.4 24.9 78 2.9 CALM 0 0 0 0 1007.4 1007.1 0.2
17/06:30pm 28.6 33.9 24.9 80 2.6 WSW 6 7 3 4 1007.0 1006.7 0.2
17/06:00pm 28.2 32.7 25.2 84 2.1 WNW 11 19 6 10 1006.7 1006.4 0.0
17/05:30pm 31.6 33.8 23.2 61 5.8 WSW 17 24 9 13 1005.7 1005.4 0.0
17/05:00pm 31.9 34.9 22.7 58 6.3 WNW 11 19 6 10 1005.4 1005.1 0.0
17/04:30pm 33.6 35.4 21.2 48 8.4 WNW 13 20 7 11 1005.1 1004.8 0.0
17/04:00pm 33.6 36.6 22.6 52 7.6 WNW 11 24 6 13 1005.2 1004.9 0.0
17/03:30pm 32.6 36.2 23.1 57 6.6 WNW 9 17 5 9 1005.3 1005.0 0.0
17/03:00pm 32.8 35.5 22.1 53 7.3 NW 11 20 6 11 1005.9 1005.6 0.0
17/02:30pm 33.2 36.7 22.9 54 7.1 W 9 19 5 10 1006.3 1006.0 0.0
17/02:00pm 32.7 35.7 22.0 53 7.3 WNW 9 17 5 9 1007.0 1006.7 0.0
17/01:30pm 32.4 35.5 22.2 55 7.0 NW 9 17 5 9 1007.3 1007.0 0.0
17/01:00pm 31.6 35.6 23.7 63 5.5 WNW 9 15 5 8 1007.6 1007.3 0.0
17/12:30pm 30.9 34.7 23.4 64 5.2 WNW 9 17 5 9 1007.9 1007.6 0.0
17/12:00pm 31.3 35.2 24.3 66 4.9 NW 11 19 6 10 1008.4 1008.1 0.0
17/11:30am 31.0 35.9 24.6 68 4.5 WNW 7 13 4 7 1008.8 1008.5 0.0
17/11:00am 29.7 33.8 23.9 71 4.0 W 9 19 5 10 1009.3 1009.0 0.0
17/10:30am 29.3 34.0 24.0 73 3.7 W 6 9 3 5 1009.4 1009.1 0.0
17/10:00am 27.7 32.2 22.9 75 3.3 W 4 9 2 5 1009.5 1009.2 0.0
17/09:30am 26.8 31.7 23.0 79 2.6 NNW 2 6 1 3 1009.4 1009.1 0.0
17/09:00am 26.1 30.2 23.0 83 2.1 NW 6 9 3 5 1009.2 1008.9 -
17/08:30am 25.4 29.9 23.0 86 1.6 NW 4 9 2 5 1009.0 1008.7 -
17/08:00am 24.5 29.9 23.2 92 0.9 CALM 0 0 0 0 1008.9 1008.6 -
17/07:30am 23.7 28.1 22.8 95 0.6 NW 4 7 2 4 1008.5 1008.2 -
17/07:00am 23.4 28.4 22.5 95 0.6 CALM 0 6 0 3 1007.8 1007.5 -
17/06:30am 23.3 27.1 22.4 95 0.6 NNW 6 9 3 5 1007.6 1007.3 -
17/06:00am 23.6 27.6 22.7 95 0.6 NW 6 9 3 5 1007.5 1007.2 -
17/05:30am 24.0 27.6 23.1 95 0.6 NW 9 15 5 8 1007.6 1007.3 -
17/05:00am 24.0 29.3 23.7 98 0.2 WSW 2 6 1 3 1007.5 1007.2 -
17/04:30am 24.1 29.8 23.7 98 0.3 CALM 0 0 0 0 1007.2 1006.9 -
17/04:00am 24.0 29.6 23.6 98 0.3 CALM 0 0 0 0 1006.9 1006.6 -
17/03:30am 24.1 29.8 23.7 98 0.3 CALM 0 0 0 0 1006.8 1006.5 -
17/03:00am 24.0 29.6 23.6 98 0.3 CALM 0 0 0 0 1006.9 1006.6 0.2
17/02:30am 24.1 29.8 23.7 98 0.3 CALM 0 0 0 0 1007.2 1006.9 -
17/02:00am 24.0 29.7 23.7 98 0.2 CALM 0 0 0 0 1007.3 1007.0 -
17/01:30am 24.0 29.6 23.6 98 0.3 CALM 0 0 0 0 1007.2 1006.9 -
17/01:00am 23.9 29.5 23.6 98 0.2 CALM 0 0 0 0 1007.3 1007.0 -
17/12:30am 24.0 29.7 23.7 98 0.2 CALM 0 0 0 0 1007.6 1007.3 -
17/12:00am 24.1 29.8 23.7 98 0.3 CALM 0 0 0 0 1008.0 1007.7 -
 
Date/Time
CST
Temp
°C
App
Temp
°C
Dew
Point
°C
Rel
Hum
%
Delta-T
°C
Wind Press
QNH
hPa
Press
MSL
hPa
Rain since
9am
mm
Dir  Spd
km/h
Gust
km/h
Spd
kts
Gust
kts
16/11:30pm 24.0 29.7 23.7 98 0.2 CALM 0 0 0 0 1008.1 1007.8 -
16/11:00pm 24.1 29.7 23.5 96 0.4 CALM 0 0 0 0 1008.3 1008.0 -
16/10:30pm 23.9 29.5 23.5 98 0.3 CALM 0 0 0 0 1008.1 1007.8 -
16/10:00pm 23.8 29.3 23.4 98 0.3 CALM 0 0 0 0 1008.1 1007.8 -
16/09:30pm 23.7 29.1 23.3 98 0.3 CALM 0 0 0 0 1008.0 1007.7 -
16/09:00pm 23.6 29.0 23.2 98 0.3 CALM 0 0 0 0 1007.9 1007.6 12.0
16/08:30pm 23.5 28.9 23.2 98 0.2 CALM 0 0 0 0 1007.5 1007.2 -
16/08:00pm 23.5 28.8 23.1 98 0.3 CALM 0 0 0 0 1007.3 1007.0 -
16/07:30pm 23.6 29.0 23.2 98 0.3 CALM 0 0 0 0 1006.7 1006.4 -
16/07:00pm 23.7 28.8 23.3 98 0.3 NNE 2 6 1 3 1006.3 1006.0 -
16/06:30pm 23.6 28.9 23.0 96 0.4 CALM 0 0 0 0 1006.4 1006.1 -
16/06:00pm 23.7 29.0 23.1 96 0.4 CALM 0 0 0 0 1006.5 1006.2 -
16/05:30pm 23.5 28.0 22.9 96 0.4 ENE 4 7 2 4 1006.2 1005.9 -
16/05:00pm 23.5 28.7 22.9 96 0.4 CALM 0 0 0 0 1006.8 1006.5 -
16/04:30pm 23.3 28.1 22.9 98 0.3 WNW 2 7 1 4 1007.5 1007.2 -
16/04:00pm 23.3 27.4 22.9 98 0.3 W 6 7 3 4 1007.8 1007.5 -
16/03:30pm 23.1 26.9 22.7 98 0.3 W 7 11 4 6 1007.9 1007.6 -
16/03:00pm 23.0 25.3 22.1 95 0.6 WSW 13 19 7 10 1008.1 1007.8 -
16/02:30pm 23.4 23.9 22.7 96 0.5 SW 24 33 13 18 1007.7 1007.4 -
16/02:14pm 24.6 24.8 22.7 89 1.3 WSW 26 48 14 26 1007.0 1006.7 -
16/02:13pm 25.0 26.0 22.8 87 1.5 W 22 43 12 23 1007.0 1006.7 -
16/02:00pm 27.0 30.6 24.4 86 1.8 WNW 13 24 7 13 1006.3 1006.0 -
16/01:30pm 29.7 33.6 24.3 73 3.8 WNW 11 17 6 9 1006.4 1006.1 -
16/01:00pm 29.5 33.4 24.2 73 3.7 NW 11 20 6 11 1006.5 1006.2 -
16/12:30pm 29.7 34.6 25.3 77 3.1 NW 9 13 5 7 1007.0 1006.7 -
16/12:00pm 29.3 34.4 25.5 80 2.7 NW 9 13 5 7 1007.8 1007.5 -
16/11:30am 28.8 34.0 25.1 80 2.6 W 7 13 4 7 1008.1 1007.8 -
16/11:00am 28.6 33.9 25.3 82 2.3 WNW 7 15 4 8 1008.6 1008.3 -
16/10:30am 28.4 33.9 25.6 85 2.0 WNW 7 13 4 7 1009.0 1008.7 -
16/10:00am 28.0 33.0 25.4 86 1.8 W 9 17 5 9 1009.1 1008.8 -

Other Formats:

Comma delimited format used in spreadsheet applications
http://www.bom.gov.au/fwo/IDD60801/IDD60801.94128.axf

JavaScript Object Notation format (JSON) in row-major order
http://www.bom.gov.au/fwo/IDD60801/IDD60801.94128.json